sensor_id;sensor_type;location;lat;lon;timestamp;temperature;humidity
68977;SHT31;56029;52.568;13.588;2022-10-16T00:00:38;13.52;99.99
68977;SHT31;56029;52.568;13.588;2022-10-16T00:03:24;13.55;99.99
68977;SHT31;56029;52.568;13.588;2022-10-16T00:05:49;13.55;99.99
68977;SHT31;56029;52.568;13.588;2022-10-16T00:08:15;13.56;99.99
68977;SHT31;56029;52.568;13.588;2022-10-16T00:10:40;13.62;99.99
68977;SHT31;56029;52.568;13.588;2022-10-16T00:13:06;13.62;99.99
68977;SHT31;56029;52.568;13.588;2022-10-16T00:15:36;13.62;99.99
68977;SHT31;56029;52.568;13.588;2022-10-16T00:18:03;13.60;99.99
68977;SHT31;56029;52.568;13.588;2022-10-16T00:20:29;13.57;99.99
68977;SHT31;56029;52.568;13.588;2022-10-16T00:22:57;13.57;99.99
68977;SHT31;56029;52.568;13.588;2022-10-16T00:25:22;13.60;99.99
68977;SHT31;56029;52.568;13.588;2022-10-16T00:27:48;13.66;99.99
68977;SHT31;56029;52.568;13.588;2022-10-16T00:30:13;13.66;99.99
68977;SHT31;56029;52.568;13.588;2022-10-16T00:32:39;13.69;99.99
68977;SHT31;56029;52.568;13.588;2022-10-16T00:35:05;13.67;99.99
68977;SHT31;56029;52.568;13.588;2022-10-16T00:37:31;13.76;99.99
68977;SHT31;56029;52.568;13.588;2022-10-16T00:39:56;13.74;99.99
68977;SHT31;56029;52.568;13.588;2022-10-16T00:42:22;13.76;99.99
68977;SHT31;56029;52.568;13.588;2022-10-16T00:44:53;13.77;99.99
68977;SHT31;56029;52.568;13.588;2022-10-16T00:47:42;13.77;99.99
68977;SHT31;56029;52.568;13.588;2022-10-16T00:50:17;13.78;99.99
68977;SHT31;56029;52.568;13.588;2022-10-16T00:52:47;13.77;99.99
68977;SHT31;56029;52.568;13.588;2022-10-16T00:55:13;13.77;99.99
68977;SHT31;56029;52.568;13.588;2022-10-16T00:57:39;13.74;99.99
68977;SHT31;56029;52.568;13.588;2022-10-16T01:00:07;13.69;99.99
68977;SHT31;56029;52.568;13.588;2022-10-16T01:02:33;13.66;99.99
68977;SHT31;56029;52.568;13.588;2022-10-16T01:04:58;13.67;99.99
68977;SHT31;56029;52.568;13.588;2022-10-16T01:07:41;13.66;99.99
68977;SHT31;56029;52.568;13.588;2022-10-16T01:13:01;13.67;99.99
68977;SHT31;56029;52.568;13.588;2022-10-16T01:15:40;13.63;99.99
68977;SHT31;56029;52.568;13.588;2022-10-16T01:18:32;13.63;99.99
68977;SHT31;56029;52.568;13.588;2022-10-16T01:21:10;13.59;99.99
68977;SHT31;56029;52.568;13.588;2022-10-16T01:26:31;13.56;99.99
68977;SHT31;56029;52.568;13.588;2022-10-16T01:29:30;13.55;99.99
68977;SHT31;56029;52.568;13.588;2022-10-16T01:32:01;13.50;99.99
68977;SHT31;56029;52.568;13.588;2022-10-16T01:34:38;13.48;99.99
68977;SHT31;56029;52.568;13.588;2022-10-16T01:37:10;13.43;99.99
68977;SHT31;56029;52.568;13.588;2022-10-16T01:39:38;13.40;99.99
68977;SHT31;56029;52.568;13.588;2022-10-16T01:42:11;13.35;99.99
68977;SHT31;56029;52.568;13.588;2022-10-16T01:44:40;13.35;99.99
68977;SHT31;56029;52.568;13.588;2022-10-16T01:47:08;13.32;99.99
68977;SHT31;56029;52.568;13.588;2022-10-16T01:49:37;13.36;99.99
68977;SHT31;56029;52.568;13.588;2022-10-16T01:52:06;13.34;99.99
68977;SHT31;56029;52.568;13.588;2022-10-16T01:54:35;13.35;99.99
68977;SHT31;56029;52.568;13.588;2022-10-16T01:57:04;13.35;99.99
68977;SHT31;56029;52.568;13.588;2022-10-16T01:59:35;13.34;99.99
68977;SHT31;56029;52.568;13.588;2022-10-16T02:02:06;13.38;99.99
68977;SHT31;56029;52.568;13.588;2022-10-16T02:04:45;13.39;99.99
68977;SHT31;56029;52.568;13.588;2022-10-16T02:07:12;13.40;99.99
68977;SHT31;56029;52.568;13.588;2022-10-16T02:09:38;13.43;99.99
68977;SHT31;56029;52.568;13.588;2022-10-16T02:12:10;13.45;99.99
68977;SHT31;56029;52.568;13.588;2022-10-16T02:14:38;13.43;99.99
68977;SHT31;56029;52.568;13.588;2022-10-16T02:17:16;13.45;99.99
68977;SHT31;56029;52.568;13.588;2022-10-16T02:19:44;13.46;99.99
68977;SHT31;56029;52.568;13.588;2022-10-16T02:22:15;13.53;99.99
68977;SHT31;56029;52.568;13.588;2022-10-16T02:24:54;13.53;99.99
68977;SHT31;56029;52.568;13.588;2022-10-16T02:30:04;13.59;99.99
68977;SHT31;56029;52.568;13.588;2022-10-16T02:32:34;13.62;99.99
68977;SHT31;56029;52.568;13.588;2022-10-16T02:35:00;13.65;99.99
68977;SHT31;56029;52.568;13.588;2022-10-16T02:37:27;13.63;99.99
68977;SHT31;56029;52.568;13.588;2022-10-16T02:39:54;13.67;99.99
68977;SHT31;56029;52.568;13.588;2022-10-16T02:42:20;13.66;99.99
68977;SHT31;56029;52.568;13.588;2022-10-16T02:44:46;13.70;99.99
68977;SHT31;56029;52.568;13.588;2022-10-16T02:47:11;13.71;99.99
68977;SHT31;56029;52.568;13.588;2022-10-16T02:49:37;13.76;99.99
68977;SHT31;56029;52.568;13.588;2022-10-16T02:52:05;13.80;99.99
68977;SHT31;56029;52.568;13.588;2022-10-16T02:54:30;13.84;99.99
68977;SHT31;56029;52.568;13.588;2022-10-16T02:56:55;13.84;99.99
68977;SHT31;56029;52.568;13.588;2022-10-16T02:59:21;13.86;99.99
68977;SHT31;56029;52.568;13.588;2022-10-16T03:01:46;13.91;99.99
68977;SHT31;56029;52.568;13.588;2022-10-16T03:04:12;13.90;99.99
68977;SHT31;56029;52.568;13.588;2022-10-16T03:06:37;13.94;99.99
68977;SHT31;56029;52.568;13.588;2022-10-16T03:09:03;13.94;99.99
68977;SHT31;56029;52.568;13.588;2022-10-16T03:11:28;13.96;99.99
68977;SHT31;56029;52.568;13.588;2022-10-16T03:13:54;13.94;99.99
68977;SHT31;56029;52.568;13.588;2022-10-16T03:16:19;13.96;99.99
68977;SHT31;56029;52.568;13.588;2022-10-16T03:18:48;13.93;99.99
68977;SHT31;56029;52.568;13.588;2022-10-16T03:21:15;13.91;99.99
68977;SHT31;56029;52.568;13.588;2022-10-16T03:23:42;13.84;99.99
68977;SHT31;56029;52.568;13.588;2022-10-16T03:26:07;13.86;99.99
68977;SHT31;56029;52.568;13.588;2022-10-16T03:28:33;13.83;99.99
68977;SHT31;56029;52.568;13.588;2022-10-16T03:30:58;13.84;99.99
68977;SHT31;56029;52.568;13.588;2022-10-16T03:33:24;13.81;99.99
68977;SHT31;56029;52.568;13.588;2022-10-16T03:35:53;13.78;99.99
68977;SHT31;56029;52.568;13.588;2022-10-16T03:38:20;13.74;99.99
68977;SHT31;56029;52.568;13.588;2022-10-16T03:40:46;13.71;99.99
68977;SHT31;56029;52.568;13.588;2022-10-16T03:43:11;13.67;99.99
68977;SHT31;56029;52.568;13.588;2022-10-16T03:45:37;13.66;99.99
68977;SHT31;56029;52.568;13.588;2022-10-16T03:48:02;13.62;99.99
68977;SHT31;56029;52.568;13.588;2022-10-16T03:50:29;13.60;99.99
68977;SHT31;56029;52.568;13.588;2022-10-16T03:52:54;13.55;99.99
68977;SHT31;56029;52.568;13.588;2022-10-16T03:55:20;13.52;99.99
68977;SHT31;56029;52.568;13.588;2022-10-16T03:57:46;13.46;99.99
68977;SHT31;56029;52.568;13.588;2022-10-16T04:00:12;13.43;99.99
68977;SHT31;56029;52.568;13.588;2022-10-16T04:02:38;13.45;99.99
68977;SHT31;56029;52.568;13.588;2022-10-16T04:05:04;13.40;99.99
68977;SHT31;56029;52.568;13.588;2022-10-16T04:07:29;13.40;99.99
68977;SHT31;56029;52.568;13.588;2022-10-16T04:09:55;13.36;99.99
68977;SHT31;56029;52.568;13.588;2022-10-16T04:12:22;13.39;99.99
68977;SHT31;56029;52.568;13.588;2022-10-16T04:14:47;13.38;99.99
68977;SHT31;56029;52.568;13.588;2022-10-16T04:17:13;13.35;99.99
68977;SHT31;56029;52.568;13.588;2022-10-16T04:19:38;13.36;99.99
68977;SHT31;56029;52.568;13.588;2022-10-16T04:22:04;13.35;99.99
68977;SHT31;56029;52.568;13.588;2022-10-16T04:24:30;13.34;99.99
68977;SHT31;56029;52.568;13.588;2022-10-16T04:26:55;13.34;99.99
68977;SHT31;56029;52.568;13.588;2022-10-16T04:29:20;13.29;99.99
68977;SHT31;56029;52.568;13.588;2022-10-16T04:31:46;13.26;99.99
68977;SHT31;56029;52.568;13.588;2022-10-16T04:34:12;13.26;99.99
68977;SHT31;56029;52.568;13.588;2022-10-16T04:36:37;13.23;99.99
68977;SHT31;56029;52.568;13.588;2022-10-16T04:39:03;13.26;99.99
68977;SHT31;56029;52.568;13.588;2022-10-16T04:41:28;13.29;99.99
68977;SHT31;56029;52.568;13.588;2022-10-16T04:43:54;13.28;99.99
68977;SHT31;56029;52.568;13.588;2022-10-16T04:46:19;13.26;99.99
68977;SHT31;56029;52.568;13.588;2022-10-16T04:48:45;13.25;99.99
68977;SHT31;56029;52.568;13.588;2022-10-16T04:51:12;13.23;99.99
68977;SHT31;56029;52.568;13.588;2022-10-16T04:53:37;13.22;99.99
68977;SHT31;56029;52.568;13.588;2022-10-16T04:56:03;13.20;99.99
68977;SHT31;56029;52.568;13.588;2022-10-16T04:58:29;13.19;99.99
68977;SHT31;56029;52.568;13.588;2022-10-16T05:00:54;13.18;99.99
68977;SHT31;56029;52.568;13.588;2022-10-16T05:03:20;13.16;99.99
68977;SHT31;56029;52.568;13.588;2022-10-16T05:05:46;13.12;99.99
68977;SHT31;56029;52.568;13.588;2022-10-16T05:08:13;13.12;99.99
68977;SHT31;56029;52.568;13.588;2022-10-16T05:10:41;13.11;99.99
68977;SHT31;56029;52.568;13.588;2022-10-16T05:13:06;13.11;99.99
68977;SHT31;56029;52.568;13.588;2022-10-16T05:15:33;13.08;99.99
68977;SHT31;56029;52.568;13.588;2022-10-16T05:17:58;13.05;99.99
68977;SHT31;56029;52.568;13.588;2022-10-16T05:20:24;13.08;99.99
68977;SHT31;56029;52.568;13.588;2022-10-16T05:22:49;13.05;99.99
68977;SHT31;56029;52.568;13.588;2022-10-16T05:25:15;13.08;99.99
68977;SHT31;56029;52.568;13.588;2022-10-16T05:27:41;13.09;99.99
68977;SHT31;56029;52.568;13.588;2022-10-16T05:30:07;13.09;99.99
68977;SHT31;56029;52.568;13.588;2022-10-16T05:32:33;13.11;99.99
68977;SHT31;56029;52.568;13.588;2022-10-16T05:34:58;13.04;99.99
68977;SHT31;56029;52.568;13.588;2022-10-16T05:37:27;13.05;99.99
68977;SHT31;56029;52.568;13.588;2022-10-16T05:39:52;13.07;99.99
68977;SHT31;56029;52.568;13.588;2022-10-16T05:42:18;13.04;99.99
68977;SHT31;56029;52.568;13.588;2022-10-16T05:44:44;13.08;99.99
68977;SHT31;56029;52.568;13.588;2022-10-16T05:47:10;13.12;99.99
68977;SHT31;56029;52.568;13.588;2022-10-16T05:49:36;13.15;99.99
68977;SHT31;56029;52.568;13.588;2022-10-16T05:52:01;13.20;99.99
68977;SHT31;56029;52.568;13.588;2022-10-16T05:54:27;13.25;99.99
68977;SHT31;56029;52.568;13.588;2022-10-16T05:56:52;13.26;99.99
68977;SHT31;56029;52.568;13.588;2022-10-16T05:59:18;13.30;99.99
68977;SHT31;56029;52.568;13.588;2022-10-16T06:01:43;13.34;99.99
68977;SHT31;56029;52.568;13.588;2022-10-16T06:04:09;13.36;99.99
68977;SHT31;56029;52.568;13.588;2022-10-16T06:06:35;13.38;99.99
68977;SHT31;56029;52.568;13.588;2022-10-16T06:09:02;13.36;99.99
68977;SHT31;56029;52.568;13.588;2022-10-16T06:11:29;13.34;99.99
68977;SHT31;56029;52.568;13.588;2022-10-16T06:13:57;13.39;99.99
68977;SHT31;56029;52.568;13.588;2022-10-16T06:16:24;13.43;99.99
68977;SHT31;56029;52.568;13.588;2022-10-16T06:18:51;13.48;99.99
68977;SHT31;56029;52.568;13.588;2022-10-16T06:21:18;13.53;99.99
68977;SHT31;56029;52.568;13.588;2022-10-16T06:23:44;13.56;99.99
68977;SHT31;56029;52.568;13.588;2022-10-16T06:26:14;13.63;99.99
68977;SHT31;56029;52.568;13.588;2022-10-16T06:28:40;13.67;99.99
68977;SHT31;56029;52.568;13.588;2022-10-16T06:31:07;13.73;99.99
68977;SHT31;56029;52.568;13.588;2022-10-16T06:33:34;13.77;99.99
68977;SHT31;56029;52.568;13.588;2022-10-16T06:36:03;13.83;99.99
68977;SHT31;56029;52.568;13.588;2022-10-16T06:38:30;13.87;99.99
68977;SHT31;56029;52.568;13.588;2022-10-16T06:40:55;13.93;99.99
68977;SHT31;56029;52.568;13.588;2022-10-16T06:43:21;14.01;99.99
68977;SHT31;56029;52.568;13.588;2022-10-16T06:45:52;14.03;99.99
68977;SHT31;56029;52.568;13.588;2022-10-16T06:48:26;14.07;99.99
68977;SHT31;56029;52.568;13.588;2022-10-16T06:51:05;14.14;99.99
68977;SHT31;56029;52.568;13.588;2022-10-16T06:53:36;14.10;99.99
68977;SHT31;56029;52.568;13.588;2022-10-16T06:56:13;14.14;99.99
68977;SHT31;56029;52.568;13.588;2022-10-16T06:58:40;14.17;99.99
68977;SHT31;56029;52.568;13.588;2022-10-16T07:01:06;14.24;99.99
68977;SHT31;56029;52.568;13.588;2022-10-16T07:03:32;14.32;99.99
68977;SHT31;56029;52.568;13.588;2022-10-16T07:06:02;14.39;99.99
68977;SHT31;56029;52.568;13.588;2022-10-16T07:08:34;14.48;99.99
68977;SHT31;56029;52.568;13.588;2022-10-16T07:11:00;14.55;99.99
68977;SHT31;56029;52.568;13.588;2022-10-16T07:13:27;14.62;99.99
68977;SHT31;56029;52.568;13.588;2022-10-16T07:15:52;14.72;99.96
68977;SHT31;56029;52.568;13.588;2022-10-16T07:18:18;14.82;99.71
68977;SHT31;56029;52.568;13.588;2022-10-16T07:20:43;14.96;99.44
68977;SHT31;56029;52.568;13.588;2022-10-16T07:23:09;15.13;99.07
68977;SHT31;56029;52.568;13.588;2022-10-16T07:25:34;15.24;98.17
68977;SHT31;56029;52.568;13.588;2022-10-16T07:28:00;15.33;98.37
68977;SHT31;56029;52.568;13.588;2022-10-16T07:30:25;15.45;97.73
68977;SHT31;56029;52.568;13.588;2022-10-16T07:32:51;15.51;97.63
68977;SHT31;56029;52.568;13.588;2022-10-16T07:35:16;15.62;97.43
68977;SHT31;56029;52.568;13.588;2022-10-16T07:37:46;15.69;97.05
68977;SHT31;56029;52.568;13.588;2022-10-16T07:40:11;15.75;96.81
68977;SHT31;56029;52.568;13.588;2022-10-16T07:42:37;15.72;96.67
68977;SHT31;56029;52.568;13.588;2022-10-16T07:45:03;15.71;96.49
68977;SHT31;56029;52.568;13.588;2022-10-16T07:47:28;15.75;96.50
68977;SHT31;56029;52.568;13.588;2022-10-16T07:49:54;15.75;96.34
68977;SHT31;56029;52.568;13.588;2022-10-16T07:52:19;15.81;96.04
68977;SHT31;56029;52.568;13.588;2022-10-16T07:54:45;15.82;96.42
68977;SHT31;56029;52.568;13.588;2022-10-16T07:57:10;15.83;96.51
68977;SHT31;56029;52.568;13.588;2022-10-16T07:59:36;15.85;96.54
68977;SHT31;56029;52.568;13.588;2022-10-16T08:02:01;15.86;96.35
68977;SHT31;56029;52.568;13.588;2022-10-16T08:04:27;15.79;96.71
68977;SHT31;56029;52.568;13.588;2022-10-16T08:06:52;15.78;96.53
68977;SHT31;56029;52.568;13.588;2022-10-16T08:09:19;15.79;96.56
68977;SHT31;56029;52.568;13.588;2022-10-16T08:11:45;15.78;96.88
68977;SHT31;56029;52.568;13.588;2022-10-16T08:14:10;15.85;96.58
68977;SHT31;56029;52.568;13.588;2022-10-16T08:16:36;15.89;96.55
68977;SHT31;56029;52.568;13.588;2022-10-16T08:19:02;15.92;96.54
68977;SHT31;56029;52.568;13.588;2022-10-16T08:21:28;15.98;96.30
68977;SHT31;56029;52.568;13.588;2022-10-16T08:23:53;16.02;96.60
68977;SHT31;56029;52.568;13.588;2022-10-16T08:26:20;16.05;96.23
68977;SHT31;56029;52.568;13.588;2022-10-16T08:28:45;16.10;96.35
68977;SHT31;56029;52.568;13.588;2022-10-16T08:31:15;16.14;96.21
68977;SHT31;56029;52.568;13.588;2022-10-16T08:33:42;16.16;96.02
68977;SHT31;56029;52.568;13.588;2022-10-16T08:36:09;16.21;95.81
68977;SHT31;56029;52.568;13.588;2022-10-16T08:38:35;16.24;95.84
68977;SHT31;56029;52.568;13.588;2022-10-16T08:41:20;16.27;95.11
68977;SHT31;56029;52.568;13.588;2022-10-16T08:44:06;16.33;95.17
68977;SHT31;56029;52.568;13.588;2022-10-16T08:46:52;16.39;94.77
68977;SHT31;56029;52.568;13.588;2022-10-16T08:49:19;16.39;94.75
68977;SHT31;56029;52.568;13.588;2022-10-16T08:51:45;16.51;94.16
68977;SHT31;56029;52.568;13.588;2022-10-16T08:54:22;16.56;94.27
68977;SHT31;56029;52.568;13.588;2022-10-16T08:56:54;16.61;94.08
68977;SHT31;56029;52.568;13.588;2022-10-16T08:59:20;16.68;93.87
68977;SHT31;56029;52.568;13.588;2022-10-16T09:01:49;16.67;93.88
68977;SHT31;56029;52.568;13.588;2022-10-16T09:07:29;16.71;93.21
68977;SHT31;56029;52.568;13.588;2022-10-16T09:10:08;16.74;93.50
68977;SHT31;56029;52.568;13.588;2022-10-16T09:12:41;16.75;92.95
68977;SHT31;56029;52.568;13.588;2022-10-16T09:15:30;16.85;93.01
68977;SHT31;56029;52.568;13.588;2022-10-16T09:18:15;16.96;92.30
68977;SHT31;56029;52.568;13.588;2022-10-16T09:21:06;17.09;91.31
68977;SHT31;56029;52.568;13.588;2022-10-16T09:23:36;17.16;91.37
68977;SHT31;56029;52.568;13.588;2022-10-16T09:26:02;17.22;91.18
68977;SHT31;56029;52.568;13.588;2022-10-16T09:28:29;17.23;90.76
68977;SHT31;56029;52.568;13.588;2022-10-16T09:30:54;17.29;90.78
68977;SHT31;56029;52.568;13.588;2022-10-16T09:33:23;17.32;90.88
68977;SHT31;56029;52.568;13.588;2022-10-16T09:35:51;17.30;90.75
68977;SHT31;56029;52.568;13.588;2022-10-16T09:38:27;17.30;89.97
68977;SHT31;56029;52.568;13.588;2022-10-16T09:40:54;17.33;89.63
68977;SHT31;56029;52.568;13.588;2022-10-16T09:46:06;17.36;89.55
68977;SHT31;56029;52.568;13.588;2022-10-16T09:48:44;17.45;89.38
68977;SHT31;56029;52.568;13.588;2022-10-16T09:51:20;17.46;88.54
68977;SHT31;56029;52.568;13.588;2022-10-16T09:53:47;17.50;88.82
68977;SHT31;56029;52.568;13.588;2022-10-16T09:56:33;17.54;88.83
68977;SHT31;56029;52.568;13.588;2022-10-16T09:59:07;17.56;88.58
68977;SHT31;56029;52.568;13.588;2022-10-16T10:01:39;17.56;87.90
68977;SHT31;56029;52.568;13.588;2022-10-16T10:04:06;17.56;88.42
68977;SHT31;56029;52.568;13.588;2022-10-16T10:06:52;17.56;88.11
68977;SHT31;56029;52.568;13.588;2022-10-16T10:09:22;17.62;87.90
68977;SHT31;56029;52.568;13.588;2022-10-16T10:14:26;17.91;87.13
68977;SHT31;56029;52.568;13.588;2022-10-16T10:19:57;18.04;86.44
68977;SHT31;56029;52.568;13.588;2022-10-16T10:22:43;18.01;86.55
68977;SHT31;56029;52.568;13.588;2022-10-16T10:25:16;18.05;86.47
68977;SHT31;56029;52.568;13.588;2022-10-16T10:36:37;17.98;85.14
68977;SHT31;56029;52.568;13.588;2022-10-16T10:39:13;17.97;85.52
68977;SHT31;56029;52.568;13.588;2022-10-16T10:42:06;18.08;84.54
68977;SHT31;56029;52.568;13.588;2022-10-16T10:44:37;18.16;84.98
68977;SHT31;56029;52.568;13.588;2022-10-16T10:47:44;18.29;84.26
68977;SHT31;56029;52.568;13.588;2022-10-16T10:50:26;18.36;83.29
68977;SHT31;56029;52.568;13.588;2022-10-16T10:56:25;18.60;82.94
68977;SHT31;56029;52.568;13.588;2022-10-16T11:07:28;18.80;81.62
68977;SHT31;56029;52.568;13.588;2022-10-16T11:10:12;18.84;79.94
68977;SHT31;56029;52.568;13.588;2022-10-16T11:12:48;18.96;79.24
68977;SHT31;56029;52.568;13.588;2022-10-16T11:15:34;19.04;80.30
68977;SHT31;56029;52.568;13.588;2022-10-16T11:18:08;19.02;79.00
68977;SHT31;56029;52.568;13.588;2022-10-16T11:21:00;18.93;78.73
68977;SHT31;56029;52.568;13.588;2022-10-16T11:24:00;18.84;78.95
68977;SHT31;56029;52.568;13.588;2022-10-16T11:26:34;18.77;78.52
68977;SHT31;56029;52.568;13.588;2022-10-16T11:29:05;18.76;78.06
68977;SHT31;56029;52.568;13.588;2022-10-16T11:31:43;18.69;78.45
68977;SHT31;56029;52.568;13.588;2022-10-16T11:36:57;18.56;79.42
68977;SHT31;56029;52.568;13.588;2022-10-16T11:39:27;18.52;79.65
68977;SHT31;56029;52.568;13.588;2022-10-16T11:44:59;18.36;79.65
68977;SHT31;56029;52.568;13.588;2022-10-16T11:47:34;18.28;80.48
68977;SHT31;56029;52.568;13.588;2022-10-16T11:50:53;18.21;80.88
68977;SHT31;56029;52.568;13.588;2022-10-16T11:56:05;18.15;79.59
68977;SHT31;56029;52.568;13.588;2022-10-16T12:01:31;18.22;80.17
68977;SHT31;56029;52.568;13.588;2022-10-16T12:06:33;18.28;79.37
68977;SHT31;56029;52.568;13.588;2022-10-16T12:09:00;18.36;79.42
68977;SHT31;56029;52.568;13.588;2022-10-16T12:16:57;18.41;76.99
68977;SHT31;56029;52.568;13.588;2022-10-16T12:19:29;18.46;75.73
68977;SHT31;56029;52.568;13.588;2022-10-16T12:22:01;18.52;76.64
68977;SHT31;56029;52.568;13.588;2022-10-16T12:24:35;18.65;74.73
68977;SHT31;56029;52.568;13.588;2022-10-16T12:27:04;18.62;73.19
68977;SHT31;56029;52.568;13.588;2022-10-16T12:29:41;18.62;74.28
68977;SHT31;56029;52.568;13.588;2022-10-16T12:32:36;18.67;73.53
68977;SHT31;56029;52.568;13.588;2022-10-16T12:35:03;18.76;72.85
68977;SHT31;56029;52.568;13.588;2022-10-16T12:37:35;18.80;72.70
68977;SHT31;56029;52.568;13.588;2022-10-16T12:40:23;18.92;71.39
68977;SHT31;56029;52.568;13.588;2022-10-16T12:43:10;18.96;71.51
68977;SHT31;56029;52.568;13.588;2022-10-16T12:45:39;18.97;72.99
68977;SHT31;56029;52.568;13.588;2022-10-16T12:48:19;19.08;71.29
68977;SHT31;56029;52.568;13.588;2022-10-16T12:50:45;19.13;70.32
68977;SHT31;56029;52.568;13.588;2022-10-16T12:53:23;19.11;69.98
68977;SHT31;56029;52.568;13.588;2022-10-16T12:58:42;19.11;67.49
68977;SHT31;56029;52.568;13.588;2022-10-16T13:01:32;19.11;67.59
68977;SHT31;56029;52.568;13.588;2022-10-16T13:04:18;19.14;68.02
68977;SHT31;56029;52.568;13.588;2022-10-16T13:10:08;19.17;69.02
68977;SHT31;56029;52.568;13.588;2022-10-16T13:16:13;19.24;67.70
68977;SHT31;56029;52.568;13.588;2022-10-16T13:21:29;19.27;68.47
68977;SHT31;56029;52.568;13.588;2022-10-16T13:24:19;19.31;67.58
68977;SHT31;56029;52.568;13.588;2022-10-16T13:29:14;19.36;66.65
68977;SHT31;56029;52.568;13.588;2022-10-16T13:31:42;19.42;66.00
68977;SHT31;56029;52.568;13.588;2022-10-16T13:34:13;19.48;65.51
68977;SHT31;56029;52.568;13.588;2022-10-16T13:36:49;19.50;65.81
68977;SHT31;56029;52.568;13.588;2022-10-16T13:39:26;19.48;65.50
68977;SHT31;56029;52.568;13.588;2022-10-16T13:42:23;19.34;66.07
68977;SHT31;56029;52.568;13.588;2022-10-16T13:44:51;19.25;66.67
68977;SHT31;56029;52.568;13.588;2022-10-16T13:49:45;19.13;67.27
68977;SHT31;56029;52.568;13.588;2022-10-16T13:52:19;19.08;67.77
68977;SHT31;56029;52.568;13.588;2022-10-16T13:54:45;19.23;67.39
68977;SHT31;56029;52.568;13.588;2022-10-16T13:57:14;19.36;67.02
68977;SHT31;56029;52.568;13.588;2022-10-16T13:59:40;19.36;66.90
68977;SHT31;56029;52.568;13.588;2022-10-16T14:04:45;19.39;67.37
68977;SHT31;56029;52.568;13.588;2022-10-16T14:07:14;19.44;66.98
68977;SHT31;56029;52.568;13.588;2022-10-16T14:09:42;19.42;66.38
68977;SHT31;56029;52.568;13.588;2022-10-16T14:12:11;19.38;67.06
68977;SHT31;56029;52.568;13.588;2022-10-16T14:14:42;19.42;66.81
68977;SHT31;56029;52.568;13.588;2022-10-16T14:17:35;19.47;66.99
68977;SHT31;56029;52.568;13.588;2022-10-16T14:20:04;19.45;66.46
68977;SHT31;56029;52.568;13.588;2022-10-16T14:22:36;19.48;66.50
68977;SHT31;56029;52.568;13.588;2022-10-16T14:27:55;19.35;67.46
68977;SHT31;56029;52.568;13.588;2022-10-16T14:30:24;19.32;66.72
68977;SHT31;56029;52.568;13.588;2022-10-16T14:33:20;19.28;67.55
68977;SHT31;56029;52.568;13.588;2022-10-16T14:35:46;19.23;68.30
68977;SHT31;56029;52.568;13.588;2022-10-16T14:38:19;19.18;68.57
68977;SHT31;56029;52.568;13.588;2022-10-16T14:40:47;19.23;68.30
68977;SHT31;56029;52.568;13.588;2022-10-16T14:43:20;19.24;67.95
68977;SHT31;56029;52.568;13.588;2022-10-16T14:45:51;19.20;68.09
68977;SHT31;56029;52.568;13.588;2022-10-16T14:48:18;19.15;68.47
68977;SHT31;56029;52.568;13.588;2022-10-16T14:50:45;19.13;68.19
68977;SHT31;56029;52.568;13.588;2022-10-16T14:53:14;19.11;68.37
68977;SHT31;56029;52.568;13.588;2022-10-16T14:55:40;19.10;69.01
68977;SHT31;56029;52.568;13.588;2022-10-16T14:58:21;19.06;68.81
68977;SHT31;56029;52.568;13.588;2022-10-16T15:00:47;19.06;69.24
68977;SHT31;56029;52.568;13.588;2022-10-16T15:03:13;19.02;68.84
68977;SHT31;56029;52.568;13.588;2022-10-16T15:05:39;18.94;69.52
68977;SHT31;56029;52.568;13.588;2022-10-16T15:08:05;18.93;69.61
68977;SHT31;56029;52.568;13.588;2022-10-16T15:10:31;18.93;69.08
68977;SHT31;56029;52.568;13.588;2022-10-16T15:12:58;18.93;68.74
68977;SHT31;56029;52.568;13.588;2022-10-16T15:15:34;18.87;69.42
68977;SHT31;56029;52.568;13.588;2022-10-16T15:18:01;18.76;69.83
68977;SHT31;56029;52.568;13.588;2022-10-16T15:20:30;18.70;70.11
68977;SHT31;56029;52.568;13.588;2022-10-16T15:22:57;18.60;70.57
68977;SHT31;56029;52.568;13.588;2022-10-16T15:25:29;18.57;70.50
68977;SHT31;56029;52.568;13.588;2022-10-16T15:27:56;18.51;70.80
68977;SHT31;56029;52.568;13.588;2022-10-16T15:30:21;18.38;71.26
68977;SHT31;56029;52.568;13.588;2022-10-16T15:32:47;18.26;71.81
68977;SHT31;56029;52.568;13.588;2022-10-16T15:35:12;18.14;72.50
68977;SHT31;56029;52.568;13.588;2022-10-16T15:37:38;18.04;73.87
68977;SHT31;56029;52.568;13.588;2022-10-16T15:40:03;17.95;73.33
68977;SHT31;56029;52.568;13.588;2022-10-16T15:42:29;17.90;72.85
68977;SHT31;56029;52.568;13.588;2022-10-16T15:44:55;17.80;73.41
68977;SHT31;56029;52.568;13.588;2022-10-16T15:47:20;17.77;72.94
68977;SHT31;56029;52.568;13.588;2022-10-16T15:49:46;17.66;73.92
68977;SHT31;56029;52.568;13.588;2022-10-16T15:52:11;17.60;73.16
68977;SHT31;56029;52.568;13.588;2022-10-16T15:54:37;17.56;73.34
68977;SHT31;56029;52.568;13.588;2022-10-16T15:57:02;17.50;73.71
68977;SHT31;56029;52.568;13.588;2022-10-16T15:59:28;17.45;73.76
68977;SHT31;56029;52.568;13.588;2022-10-16T16:01:56;17.40;73.32
68977;SHT31;56029;52.568;13.588;2022-10-16T16:04:22;17.35;73.83
68977;SHT31;56029;52.568;13.588;2022-10-16T16:06:48;17.26;73.40
68977;SHT31;56029;52.568;13.588;2022-10-16T16:09:14;17.19;73.77
68977;SHT31;56029;52.568;13.588;2022-10-16T16:11:40;17.09;74.88
68977;SHT31;56029;52.568;13.588;2022-10-16T16:14:06;16.99;74.96
68977;SHT31;56029;52.568;13.588;2022-10-16T16:16:32;16.89;76.22
68977;SHT31;56029;52.568;13.588;2022-10-16T16:19:04;16.75;76.15
68977;SHT31;56029;52.568;13.588;2022-10-16T16:21:31;16.63;77.10
68977;SHT31;56029;52.568;13.588;2022-10-16T16:23:57;16.44;77.35
68977;SHT31;56029;52.568;13.588;2022-10-16T16:26:25;16.34;78.24
68977;SHT31;56029;52.568;13.588;2022-10-16T16:28:54;16.21;78.52
68977;SHT31;56029;52.568;13.588;2022-10-16T16:31:24;16.09;79.56
68977;SHT31;56029;52.568;13.588;2022-10-16T16:33:50;15.93;79.79
68977;SHT31;56029;52.568;13.588;2022-10-16T16:36:17;15.83;79.93
68977;SHT31;56029;52.568;13.588;2022-10-16T16:38:46;15.79;79.32
68977;SHT31;56029;52.568;13.588;2022-10-16T16:41:17;15.66;80.34
68977;SHT31;56029;52.568;13.588;2022-10-16T16:43:43;15.62;80.30
68977;SHT31;56029;52.568;13.588;2022-10-16T16:46:09;15.51;80.34
68977;SHT31;56029;52.568;13.588;2022-10-16T16:48:34;15.45;80.85
68977;SHT31;56029;52.568;13.588;2022-10-16T16:51:14;15.33;81.91
68977;SHT31;56029;52.568;13.588;2022-10-16T16:53:42;15.21;82.19